createdAt,value
2019-03-22T00:04:30.136Z,10.63
2019-03-22T00:09:36.507Z,10.63
2019-03-22T00:14:42.777Z,10.66
2019-03-22T00:19:49.062Z,10.68
2019-03-22T00:24:55.411Z,10.69
2019-03-22T00:30:01.742Z,10.69
2019-03-22T00:35:08.330Z,10.67
2019-03-22T00:40:14.617Z,10.65
2019-03-22T00:45:20.913Z,10.63
2019-03-22T00:50:27.191Z,10.59
2019-03-22T00:55:33.495Z,10.54
2019-03-22T01:00:40.018Z,10.48
2019-03-22T01:05:46.289Z,10.40
2019-03-22T01:10:52.598Z,10.32
2019-03-22T01:15:58.882Z,10.24
2019-03-22T01:21:05.173Z,10.18
2019-03-22T01:26:11.447Z,10.12
2019-03-22T01:31:17.716Z,10.09
2019-03-22T01:36:24.002Z,10.07
2019-03-22T01:41:30.292Z,10.07
2019-03-22T01:46:36.551Z,10.06
2019-03-22T01:51:42.817Z,10.04
2019-03-22T01:56:49.283Z,10.01
2019-03-22T02:01:55.613Z,9.97
2019-03-22T02:07:01.917Z,9.91
2019-03-22T02:12:08.242Z,9.84
2019-03-22T02:17:14.603Z,9.78
2019-03-22T02:22:20.955Z,9.75
2019-03-22T02:27:27.255Z,9.75
2019-03-22T02:32:33.513Z,9.75
2019-03-22T02:37:39.755Z,9.73
2019-03-22T02:42:47.231Z,9.70
2019-03-22T02:47:53.483Z,9.68
2019-03-22T02:52:59.720Z,9.67
2019-03-22T02:58:19.624Z,9.68
2019-03-22T03:03:13.919Z,9.71
2019-03-22T03:08:20.223Z,9.74
2019-03-22T03:13:26.594Z,9.74
2019-03-22T03:18:32.799Z,9.72
2019-03-22T03:23:39.087Z,9.70
2019-03-22T03:28:45.320Z,9.67
2019-03-22T03:33:51.563Z,9.65
2019-03-22T03:38:57.778Z,9.62
2019-03-22T03:44:04.092Z,9.59
2019-03-22T03:49:10.399Z,9.57
2019-03-22T03:54:16.613Z,9.53
2019-03-22T03:59:22.949Z,9.47
2019-03-22T04:04:29.263Z,9.42
2019-03-22T04:09:35.503Z,9.37
2019-03-22T04:14:41.715Z,9.32
2019-03-22T04:19:47.949Z,9.28
2019-03-22T04:24:54.205Z,9.25
2019-03-22T04:30:00.562Z,9.24
2019-03-22T04:35:07.019Z,9.24
2019-03-22T04:40:38.305Z,9.20
2019-03-22T04:45:44.539Z,9.17
2019-03-22T04:50:50.769Z,9.15
2019-03-22T04:55:58.580Z,9.12
2019-03-22T05:01:04.778Z,9.09
2019-03-22T05:06:11.128Z,9.05
2019-03-22T05:11:17.377Z,9.03
2019-03-22T05:16:23.649Z,9.03
2019-03-22T05:21:29.878Z,9.03
2019-03-22T05:26:36.135Z,9.04
2019-03-22T05:32:11.193Z,9.06
2019-03-22T05:37:17.422Z,9.08
2019-03-22T05:42:23.667Z,9.13
2019-03-22T05:47:29.874Z,9.20
2019-03-22T05:52:36.108Z,9.26
2019-03-22T05:57:42.349Z,9.36
2019-03-22T06:02:50.607Z,9.46
2019-03-22T06:07:56.963Z,9.59
2019-03-22T06:13:03.248Z,9.73
2019-03-22T06:18:09.499Z,9.91
2019-03-22T06:23:15.771Z,10.09
2019-03-22T06:28:22.107Z,10.28
2019-03-22T06:33:28.362Z,10.58
2019-03-22T06:38:34.659Z,10.98
2019-03-22T06:43:40.920Z,11.50
2019-03-22T06:48:47.452Z,12.15
2019-03-22T06:53:53.697Z,12.99
2019-03-22T06:58:59.946Z,13.46
2019-03-22T07:04:06.375Z,13.98
2019-03-22T07:09:12.699Z,15.42
2019-03-22T07:14:18.931Z,16.65
2019-03-22T07:19:25.212Z,17.44
2019-03-22T07:24:31.464Z,18.46
2019-03-22T07:29:37.716Z,19.69
2019-03-22T07:34:44.069Z,21.15
2019-03-22T07:39:50.308Z,21.98
2019-03-22T07:44:56.609Z,22.26
2019-03-22T07:50:02.915Z,23.20
2019-03-22T07:55:09.137Z,23.72
2019-03-22T08:00:15.345Z,24.55
2019-03-22T08:05:21.629Z,26.34
2019-03-22T08:10:27.928Z,28.39
2019-03-22T08:15:34.990Z,30.09
2019-03-22T08:20:41.402Z,31.51
2019-03-22T08:25:47.982Z,32.22
2019-03-22T08:30:54.572Z,33.08
2019-03-22T08:36:01.181Z,34.32
2019-03-22T08:41:07.745Z,35.56
2019-03-22T08:46:14.267Z,37.04
2019-03-22T08:51:20.882Z,38.03
2019-03-22T08:56:27.459Z,38.94
2019-03-22T09:01:34.086Z,40.05
2019-03-22T09:06:41.283Z,40.45
2019-03-22T09:11:47.824Z,40.56
2019-03-22T09:16:54.372Z,40.41
2019-03-22T09:22:00.919Z,40.30
2019-03-22T09:27:07.520Z,39.56
2019-03-22T09:32:14.057Z,39.30
2019-03-22T09:37:20.604Z,38.59
2019-03-22T09:42:27.404Z,37.83
2019-03-22T09:47:34.178Z,36.89
2019-03-22T09:52:40.993Z,34.60
2019-03-22T09:57:49.559Z,32.12
2019-03-22T10:02:56.400Z,29.40
2019-03-22T10:08:02.881Z,27.01
2019-03-22T10:13:09.224Z,25.23
2019-03-22T10:18:15.803Z,23.93
2019-03-22T10:23:22.794Z,22.97
2019-03-22T10:28:29.359Z,22.09
2019-03-22T10:33:35.961Z,22.00
2019-03-22T10:38:44.159Z,21.67
2019-03-22T10:43:50.669Z,21.26
2019-03-22T10:48:57.064Z,21.05
2019-03-22T10:54:03.444Z,20.98
2019-03-22T10:59:09.693Z,20.95
2019-03-22T11:04:15.904Z,20.89
2019-03-22T11:09:22.211Z,20.65
2019-03-22T11:14:28.447Z,20.38
2019-03-22T11:19:34.747Z,20.36
2019-03-22T11:24:41.073Z,20.28
2019-03-22T11:29:47.331Z,20.15
2019-03-22T11:34:53.658Z,20.10
2019-03-22T11:39:59.899Z,20.01
2019-03-22T11:45:07.336Z,19.92
2019-03-22T11:50:13.606Z,19.83
2019-03-22T11:55:20.109Z,19.81
2019-03-22T12:00:26.588Z,19.82
2019-03-22T12:05:40.011Z,19.90
2019-03-22T12:10:40.823Z,19.96
2019-03-22T12:15:47.151Z,20.06
2019-03-22T12:20:53.358Z,20.13
2019-03-22T12:25:59.624Z,20.22
2019-03-22T12:31:06.014Z,20.36
2019-03-22T12:36:12.284Z,20.46
2019-03-22T12:41:18.734Z,20.63
2019-03-22T12:46:25.210Z,20.75
2019-03-22T12:51:31.457Z,20.81
2019-03-22T12:56:37.694Z,20.88
2019-03-22T13:01:43.939Z,21.01
2019-03-22T13:06:50.155Z,21.17
2019-03-22T13:11:56.420Z,21.24
2019-03-22T13:17:02.704Z,21.28
2019-03-22T13:22:09.009Z,21.33
2019-03-22T13:27:15.463Z,21.41
2019-03-22T13:32:21.952Z,21.50
2019-03-22T13:37:28.214Z,21.52
2019-03-22T13:42:34.498Z,21.55
2019-03-22T13:47:40.731Z,21.63
2019-03-22T13:52:46.985Z,21.71
2019-03-22T13:57:53.325Z,21.78
2019-03-22T14:03:02.855Z,21.88
2019-03-22T14:08:07.609Z,21.92
2019-03-22T14:13:13.914Z,21.92
2019-03-22T14:18:20.329Z,21.94
2019-03-22T14:23:26.572Z,21.99
2019-03-22T14:28:32.898Z,22.00
2019-03-22T14:33:39.279Z,21.98
2019-03-22T14:38:45.729Z,21.99
2019-03-22T14:43:51.943Z,21.99
2019-03-22T14:48:58.197Z,21.96
2019-03-22T14:54:04.471Z,21.96
2019-03-22T14:59:10.692Z,21.95
2019-03-22T15:04:16.973Z,21.97
2019-03-22T15:09:23.304Z,21.97
2019-03-22T15:14:47.234Z,21.95
2019-03-22T15:20:07.663Z,21.92
2019-03-22T15:25:35.635Z,21.89
2019-03-22T15:30:59.166Z,21.87
2019-03-22T15:36:14.407Z,21.81
2019-03-22T15:41:20.636Z,21.77
2019-03-22T15:46:26.938Z,21.71
2019-03-22T15:51:33.237Z,21.66
2019-03-22T15:56:39.487Z,21.62
2019-03-22T16:01:45.711Z,21.57
2019-03-22T16:06:52.067Z,21.53
2019-03-22T16:11:58.462Z,21.50
2019-03-22T16:17:04.680Z,21.42
2019-03-22T16:22:10.886Z,21.36
2019-03-22T16:27:17.178Z,21.30
2019-03-22T16:32:23.497Z,21.23
2019-03-22T16:37:29.769Z,21.17
2019-03-22T16:42:36.064Z,21.08
2019-03-22T16:47:42.256Z,21.00
2019-03-22T16:52:48.526Z,20.93
2019-03-22T16:57:54.801Z,20.82
2019-03-22T17:03:00.994Z,20.68
2019-03-22T17:08:07.263Z,20.52
2019-03-22T17:13:13.629Z,20.41
2019-03-22T17:18:19.833Z,20.26
2019-03-22T17:23:26.073Z,20.11
2019-03-22T17:28:32.331Z,19.96
2019-03-22T17:33:38.792Z,19.81
2019-03-22T17:38:45.025Z,19.70
2019-03-22T17:43:51.421Z,19.54
2019-03-22T17:48:57.832Z,19.38
2019-03-22T17:54:04.190Z,19.21
2019-03-22T17:59:10.456Z,19.13
2019-03-22T18:04:23.916Z,19.02
2019-03-22T18:09:24.806Z,18.90
2019-03-22T18:14:31.241Z,18.80
2019-03-22T18:19:37.692Z,18.68
2019-03-22T18:24:44.011Z,18.51
2019-03-22T18:29:50.237Z,18.39
2019-03-22T18:34:56.457Z,18.27
2019-03-22T18:40:02.672Z,18.14
2019-03-22T18:45:09.147Z,18.00
2019-03-22T18:50:15.387Z,17.84
2019-03-22T18:55:22.007Z,17.70
2019-03-22T19:00:28.365Z,17.58
2019-03-22T19:05:34.597Z,17.48
2019-03-22T19:10:40.919Z,17.40
2019-03-22T19:15:47.170Z,17.31
2019-03-22T19:20:53.616Z,17.24
2019-03-22T19:25:59.853Z,17.16
2019-03-22T19:31:06.064Z,17.04
2019-03-22T19:36:12.401Z,16.91
2019-03-22T19:41:18.643Z,16.79
2019-03-22T19:46:24.914Z,16.69
2019-03-22T19:51:31.213Z,16.57
2019-03-22T19:56:37.463Z,16.39
2019-03-22T20:01:43.789Z,16.26
2019-03-22T20:06:50.020Z,16.13
2019-03-22T20:11:56.252Z,16.06
2019-03-22T20:17:02.489Z,16.01
2019-03-22T20:22:08.693Z,15.95
2019-03-22T20:27:15.079Z,15.87
2019-03-22T20:32:21.309Z,15.80
2019-03-22T20:37:27.532Z,15.72
2019-03-22T20:42:33.883Z,15.63
2019-03-22T20:47:40.190Z,15.58
2019-03-22T20:52:47.729Z,15.52
2019-03-22T20:57:54.058Z,15.48
2019-03-22T21:03:00.485Z,15.46
2019-03-22T21:08:06.754Z,15.43
2019-03-22T21:13:13.078Z,15.40
2019-03-22T21:18:19.417Z,15.36
2019-03-22T21:23:35.724Z,15.28
2019-03-22T21:28:33.811Z,15.18
2019-03-22T21:33:40.038Z,15.09
2019-03-22T21:38:46.378Z,15.01
2019-03-22T21:43:52.736Z,14.91
2019-03-22T21:48:58.979Z,14.81
2019-03-22T21:54:05.204Z,14.72
2019-03-22T21:59:11.471Z,14.63
2019-03-22T22:04:17.784Z,14.51
2019-03-22T22:09:24.066Z,14.44
2019-03-22T22:14:40.217Z,14.34
2019-03-22T22:19:38.250Z,14.26
2019-03-22T22:24:44.479Z,14.16
2019-03-22T22:29:50.812Z,14.06
2019-03-22T22:34:57.095Z,13.95
2019-03-22T22:40:03.424Z,13.85
2019-03-22T22:45:09.697Z,13.77
2019-03-22T22:50:15.953Z,13.65
2019-03-22T22:55:22.201Z,13.57
2019-03-22T23:00:29.021Z,13.47
2019-03-22T23:05:35.302Z,13.38
2019-03-22T23:10:41.570Z,13.29
2019-03-22T23:15:47.942Z,13.19
2019-03-22T23:20:54.346Z,13.09
2019-03-22T23:26:00.684Z,13.00
2019-03-22T23:31:06.997Z,12.92
2019-03-22T23:36:20.107Z,12.83
2019-03-22T23:41:21.272Z,12.75
2019-03-22T23:46:27.524Z,12.67
2019-03-22T23:51:33.983Z,12.57
2019-03-22T23:56:40.290Z,12.49
